sensor_id;sensor_type;location;lat;lon;timestamp;P1;durP1;ratioP1;P2;durP2;ratioP2
24409;SDS011;12543;53.364;-1.504;2022-09-09T00:01:49;12.02;;;10.73;;
24409;SDS011;12543;53.364;-1.504;2022-09-09T00:04:28;13.50;;;11.60;;
24409;SDS011;12543;53.364;-1.504;2022-09-09T00:07:03;12.52;;;11.23;;
24409;SDS011;12543;53.364;-1.504;2022-09-09T00:09:39;14.15;;;11.05;;
24409;SDS011;12543;53.364;-1.504;2022-09-09T00:14:47;12.38;;;10.68;;
24409;SDS011;12543;53.364;-1.504;2022-09-09T00:20:12;15.48;;;12.82;;
24409;SDS011;12543;53.364;-1.504;2022-09-09T00:22:47;14.95;;;12.23;;
24409;SDS011;12543;53.364;-1.504;2022-09-09T00:25:28;13.85;;;12.35;;
24409;SDS011;12543;53.364;-1.504;2022-09-09T00:28:00;16.50;;;12.93;;
24409;SDS011;12543;53.364;-1.504;2022-09-09T00:30:30;15.13;;;12.75;;
24409;SDS011;12543;53.364;-1.504;2022-09-09T00:33:01;15.00;;;13.40;;
24409;SDS011;12543;53.364;-1.504;2022-09-09T00:35:40;13.82;;;12.35;;
24409;SDS011;12543;53.364;-1.504;2022-09-09T00:38:15;13.25;;;11.75;;
24409;SDS011;12543;53.364;-1.504;2022-09-09T00:43:31;13.60;;;12.10;;
24409;SDS011;12543;53.364;-1.504;2022-09-09T00:54:48;12.77;;;11.48;;
24409;SDS011;12543;53.364;-1.504;2022-09-09T00:59:58;12.38;;;11.18;;
24409;SDS011;12543;53.364;-1.504;2022-09-09T01:08:02;13.85;;;12.35;;
24409;SDS011;12543;53.364;-1.504;2022-09-09T01:10:44;13.57;;;12.18;;
24409;SDS011;12543;53.364;-1.504;2022-09-09T01:13:27;12.75;;;11.48;;
24409;SDS011;12543;53.364;-1.504;2022-09-09T01:16:08;14.23;;;12.68;;
24409;SDS011;12543;53.364;-1.504;2022-09-09T01:18:40;14.18;;;12.63;;
24409;SDS011;12543;53.364;-1.504;2022-09-09T01:27:05;13.55;;;11.70;;
24409;SDS011;12543;53.364;-1.504;2022-09-09T01:29:34;13.75;;;12.23;;
24409;SDS011;12543;53.364;-1.504;2022-09-09T01:32:03;13.05;;;11.65;;
24409;SDS011;12543;53.364;-1.504;2022-09-09T01:35:10;15.52;;;13.52;;
24409;SDS011;12543;53.364;-1.504;2022-09-09T01:42:22;16.55;;;13.65;;
24409;SDS011;12543;53.364;-1.504;2022-09-09T01:44:49;17.42;;;13.70;;
24409;SDS011;12543;53.364;-1.504;2022-09-09T01:47:16;19.95;;;14.23;;
24409;SDS011;12543;53.364;-1.504;2022-09-09T01:50:13;18.33;;;13.55;;
24409;SDS011;12543;53.364;-1.504;2022-09-09T01:52:44;16.38;;;12.75;;
24409;SDS011;12543;53.364;-1.504;2022-09-09T01:55:15;14.40;;;12.13;;
24409;SDS011;12543;53.364;-1.504;2022-09-09T02:00:23;19.55;;;13.90;;
24409;SDS011;12543;53.364;-1.504;2022-09-09T02:02:59;16.13;;;12.55;;
24409;SDS011;12543;53.364;-1.504;2022-09-09T02:05:57;15.02;;;12.30;;
24409;SDS011;12543;53.364;-1.504;2022-09-09T02:08:48;15.65;;;12.80;;
24409;SDS011;12543;53.364;-1.504;2022-09-09T02:11:17;16.30;;;12.32;;
24409;SDS011;12543;53.364;-1.504;2022-09-09T02:14:08;17.70;;;13.13;;
24409;SDS011;12543;53.364;-1.504;2022-09-09T02:16:42;19.23;;;13.55;;
24409;SDS011;12543;53.364;-1.504;2022-09-09T02:19:15;14.35;;;12.25;;
24409;SDS011;12543;53.364;-1.504;2022-09-09T02:21:59;17.08;;;12.80;;
24409;SDS011;12543;53.364;-1.504;2022-09-09T02:24:29;14.05;;;10.95;;
24409;SDS011;12543;53.364;-1.504;2022-09-09T02:27:21;15.43;;;12.15;;
24409;SDS011;12543;53.364;-1.504;2022-09-09T02:29:50;14.93;;;11.65;;
24409;SDS011;12543;53.364;-1.504;2022-09-09T02:32:31;14.02;;;11.00;;
24409;SDS011;12543;53.364;-1.504;2022-09-09T02:35:05;15.48;;;12.48;;
24409;SDS011;12543;53.364;-1.504;2022-09-09T02:37:38;16.17;;;12.40;;
24409;SDS011;12543;53.364;-1.504;2022-09-09T02:40:09;15.45;;;11.68;;
24409;SDS011;12543;53.364;-1.504;2022-09-09T02:42:41;15.80;;;11.93;;
24409;SDS011;12543;53.364;-1.504;2022-09-09T02:45:11;14.52;;;11.45;;
24409;SDS011;12543;53.364;-1.504;2022-09-09T02:50:35;14.45;;;11.30;;
24409;SDS011;12543;53.364;-1.504;2022-09-09T02:53:37;13.98;;;11.35;;
24409;SDS011;12543;53.364;-1.504;2022-09-09T02:56:14;12.35;;;10.68;;
24409;SDS011;12543;53.364;-1.504;2022-09-09T02:58:46;14.57;;;11.82;;
24409;SDS011;12543;53.364;-1.504;2022-09-09T03:01:14;13.13;;;11.73;;
24409;SDS011;12543;53.364;-1.504;2022-09-09T03:03:41;12.75;;;10.32;;
24409;SDS011;12543;53.364;-1.504;2022-09-09T03:06:12;11.60;;;10.23;;
24409;SDS011;12543;53.364;-1.504;2022-09-09T03:08:42;13.32;;;10.38;;
24409;SDS011;12543;53.364;-1.504;2022-09-09T03:11:19;10.55;;;9.45;;
24409;SDS011;12543;53.364;-1.504;2022-09-09T03:13:46;11.82;;;10.10;;
24409;SDS011;12543;53.364;-1.504;2022-09-09T03:16:17;11.13;;;10.00;;
24409;SDS011;12543;53.364;-1.504;2022-09-09T03:18:47;11.68;;;9.80;;
24409;SDS011;12543;53.364;-1.504;2022-09-09T03:21:14;10.93;;;9.63;;
24409;SDS011;12543;53.364;-1.504;2022-09-09T03:23:42;14.00;;;10.23;;
24409;SDS011;12543;53.364;-1.504;2022-09-09T03:26:11;11.43;;;9.95;;
24409;SDS011;12543;53.364;-1.504;2022-09-09T03:28:44;11.93;;;10.55;;
24409;SDS011;12543;53.364;-1.504;2022-09-09T03:31:14;11.77;;;10.10;;
24409;SDS011;12543;53.364;-1.504;2022-09-09T03:33:41;12.45;;;10.38;;
24409;SDS011;12543;53.364;-1.504;2022-09-09T03:36:12;13.57;;;10.82;;
24409;SDS011;12543;53.364;-1.504;2022-09-09T03:38:39;12.82;;;10.45;;
24409;SDS011;12543;53.364;-1.504;2022-09-09T03:41:06;12.77;;;10.82;;
24409;SDS011;12543;53.364;-1.504;2022-09-09T03:43:34;13.32;;;9.93;;
24409;SDS011;12543;53.364;-1.504;2022-09-09T03:46:03;13.65;;;10.30;;
24409;SDS011;12543;53.364;-1.504;2022-09-09T03:48:30;12.32;;;10.55;;
24409;SDS011;12543;53.364;-1.504;2022-09-09T03:50:58;11.27;;;9.60;;
24409;SDS011;12543;53.364;-1.504;2022-09-09T03:53:29;11.27;;;9.25;;
24409;SDS011;12543;53.364;-1.504;2022-09-09T03:55:56;10.63;;;9.45;;
24409;SDS011;12543;53.364;-1.504;2022-09-09T03:58:27;11.95;;;10.07;;
24409;SDS011;12543;53.364;-1.504;2022-09-09T04:01:10;10.77;;;8.98;;
24409;SDS011;12543;53.364;-1.504;2022-09-09T04:03:43;10.15;;;9.15;;
24409;SDS011;12543;53.364;-1.504;2022-09-09T04:06:11;11.80;;;9.18;;
24409;SDS011;12543;53.364;-1.504;2022-09-09T04:08:43;9.73;;;8.68;;
24409;SDS011;12543;53.364;-1.504;2022-09-09T04:11:13;8.55;;;7.75;;
24409;SDS011;12543;53.364;-1.504;2022-09-09T04:13:40;8.10;;;7.30;;
24409;SDS011;12543;53.364;-1.504;2022-09-09T04:16:10;8.05;;;7.25;;
24409;SDS011;12543;53.364;-1.504;2022-09-09T04:18:41;7.18;;;6.40;;
24409;SDS011;12543;53.364;-1.504;2022-09-09T04:21:09;8.37;;;6.80;;
24409;SDS011;12543;53.364;-1.504;2022-09-09T04:23:36;7.65;;;6.70;;
24409;SDS011;12543;53.364;-1.504;2022-09-09T04:26:05;6.65;;;6.05;;
24409;SDS011;12543;53.364;-1.504;2022-09-09T04:28:34;6.28;;;5.68;;
24409;SDS011;12543;53.364;-1.504;2022-09-09T04:31:15;6.80;;;6.07;;
24409;SDS011;12543;53.364;-1.504;2022-09-09T04:33:52;6.47;;;5.88;;
24409;SDS011;12543;53.364;-1.504;2022-09-09T04:36:20;6.18;;;5.57;;
24409;SDS011;12543;53.364;-1.504;2022-09-09T04:38:50;5.78;;;5.28;;
24409;SDS011;12543;53.364;-1.504;2022-09-09T04:41:18;6.07;;;5.57;;
24409;SDS011;12543;53.364;-1.504;2022-09-09T04:43:49;6.13;;;5.53;;
24409;SDS011;12543;53.364;-1.504;2022-09-09T04:46:16;7.20;;;6.28;;
24409;SDS011;12543;53.364;-1.504;2022-09-09T04:48:45;7.40;;;5.50;;
24409;SDS011;12543;53.364;-1.504;2022-09-09T04:51:14;6.00;;;5.30;;
24409;SDS011;12543;53.364;-1.504;2022-09-09T04:53:44;5.72;;;5.20;;
24409;SDS011;12543;53.364;-1.504;2022-09-09T04:56:14;6.03;;;5.40;;
24409;SDS011;12543;53.364;-1.504;2022-09-09T04:58:47;8.00;;;5.68;;
24409;SDS011;12543;53.364;-1.504;2022-09-09T05:01:16;6.35;;;5.75;;
24409;SDS011;12543;53.364;-1.504;2022-09-09T05:03:47;6.05;;;5.45;;
24409;SDS011;12543;53.364;-1.504;2022-09-09T05:06:19;5.38;;;4.88;;
24409;SDS011;12543;53.364;-1.504;2022-09-09T05:08:50;5.85;;;5.25;;
24409;SDS011;12543;53.364;-1.504;2022-09-09T05:11:23;5.70;;;5.20;;
24409;SDS011;12543;53.364;-1.504;2022-09-09T05:13:59;6.78;;;6.13;;
24409;SDS011;12543;53.364;-1.504;2022-09-09T05:16:28;7.15;;;6.45;;
24409;SDS011;12543;53.364;-1.504;2022-09-09T05:18:56;7.32;;;6.57;;
24409;SDS011;12543;53.364;-1.504;2022-09-09T05:21:24;8.63;;;7.68;;
24409;SDS011;12543;53.364;-1.504;2022-09-09T05:23:53;8.07;;;7.18;;
24409;SDS011;12543;53.364;-1.504;2022-09-09T05:26:21;7.78;;;7.07;;
24409;SDS011;12543;53.364;-1.504;2022-09-09T05:28:51;8.02;;;7.22;;
24409;SDS011;12543;53.364;-1.504;2022-09-09T05:31:18;8.18;;;6.95;;
24409;SDS011;12543;53.364;-1.504;2022-09-09T05:33:49;8.05;;;7.25;;
24409;SDS011;12543;53.364;-1.504;2022-09-09T05:36:17;8.52;;;6.75;;
24409;SDS011;12543;53.364;-1.504;2022-09-09T05:38:49;7.32;;;6.63;;
24409;SDS011;12543;53.364;-1.504;2022-09-09T05:41:16;7.72;;;6.68;;
24409;SDS011;12543;53.364;-1.504;2022-09-09T05:43:45;8.30;;;6.65;;
24409;SDS011;12543;53.364;-1.504;2022-09-09T05:46:17;7.10;;;6.43;;
24409;SDS011;12543;53.364;-1.504;2022-09-09T05:48:49;7.72;;;6.78;;
24409;SDS011;12543;53.364;-1.504;2022-09-09T05:51:23;6.75;;;6.05;;
24409;SDS011;12543;53.364;-1.504;2022-09-09T05:53:55;6.90;;;6.20;;
24409;SDS011;12543;53.364;-1.504;2022-09-09T05:56:27;8.10;;;7.20;;
24409;SDS011;12543;53.364;-1.504;2022-09-09T05:58:57;6.55;;;5.95;;
24409;SDS011;12543;53.364;-1.504;2022-09-09T06:01:28;7.63;;;6.88;;
24409;SDS011;12543;53.364;-1.504;2022-09-09T06:03:57;9.70;;;7.00;;
24409;SDS011;12543;53.364;-1.504;2022-09-09T06:06:25;8.77;;;7.45;;
24409;SDS011;12543;53.364;-1.504;2022-09-09T06:08:57;8.77;;;7.80;;
24409;SDS011;12543;53.364;-1.504;2022-09-09T06:11:30;10.48;;;8.52;;
24409;SDS011;12543;53.364;-1.504;2022-09-09T06:13:59;10.25;;;8.80;;
24409;SDS011;12543;53.364;-1.504;2022-09-09T06:16:28;9.70;;;8.70;;
24409;SDS011;12543;53.364;-1.504;2022-09-09T06:18:56;12.45;;;9.85;;
24409;SDS011;12543;53.364;-1.504;2022-09-09T06:21:29;11.60;;;9.40;;
24409;SDS011;12543;53.364;-1.504;2022-09-09T06:24:00;12.05;;;9.70;;
24409;SDS011;12543;53.364;-1.504;2022-09-09T06:26:31;11.77;;;9.85;;
24409;SDS011;12543;53.364;-1.504;2022-09-09T06:29:02;11.07;;;9.43;;
24409;SDS011;12543;53.364;-1.504;2022-09-09T06:31:31;11.07;;;9.27;;
24409;SDS011;12543;53.364;-1.504;2022-09-09T06:34:07;12.07;;;9.63;;
24409;SDS011;12543;53.364;-1.504;2022-09-09T06:36:39;12.27;;;9.35;;
24409;SDS011;12543;53.364;-1.504;2022-09-09T06:39:07;10.65;;;9.07;;
24409;SDS011;12543;53.364;-1.504;2022-09-09T06:41:40;10.57;;;9.25;;
24409;SDS011;12543;53.364;-1.504;2022-09-09T06:44:27;9.68;;;8.38;;
24409;SDS011;12543;53.364;-1.504;2022-09-09T06:47:01;12.00;;;9.68;;
24409;SDS011;12543;53.364;-1.504;2022-09-09T06:49:28;10.30;;;8.88;;
24409;SDS011;12543;53.364;-1.504;2022-09-09T06:51:55;10.30;;;9.15;;
24409;SDS011;12543;53.364;-1.504;2022-09-09T06:54:23;11.23;;;9.55;;
24409;SDS011;12543;53.364;-1.504;2022-09-09T06:56:53;11.85;;;9.70;;
24409;SDS011;12543;53.364;-1.504;2022-09-09T06:59:22;10.25;;;9.18;;
24409;SDS011;12543;53.364;-1.504;2022-09-09T07:01:52;10.75;;;9.52;;
24409;SDS011;12543;53.364;-1.504;2022-09-09T07:04:22;11.00;;;9.80;;
24409;SDS011;12543;53.364;-1.504;2022-09-09T07:06:54;10.60;;;9.38;;
24409;SDS011;12543;53.364;-1.504;2022-09-09T07:09:23;12.95;;;8.88;;
24409;SDS011;12543;53.364;-1.504;2022-09-09T07:11:52;11.25;;;8.85;;
24409;SDS011;12543;53.364;-1.504;2022-09-09T07:14:21;11.45;;;8.80;;
24409;SDS011;12543;53.364;-1.504;2022-09-09T07:16:58;12.63;;;9.32;;
24409;SDS011;12543;53.364;-1.504;2022-09-09T07:19:31;10.75;;;8.30;;
24409;SDS011;12543;53.364;-1.504;2022-09-09T07:22:00;11.43;;;9.43;;
24409;SDS011;12543;53.364;-1.504;2022-09-09T07:24:30;10.07;;;8.98;;
24409;SDS011;12543;53.364;-1.504;2022-09-09T07:26:58;12.80;;;9.27;;
24409;SDS011;12543;53.364;-1.504;2022-09-09T07:29:26;11.32;;;8.65;;
24409;SDS011;12543;53.364;-1.504;2022-09-09T07:31:53;11.10;;;8.25;;
24409;SDS011;12543;53.364;-1.504;2022-09-09T07:34:25;9.52;;;8.10;;
24409;SDS011;12543;53.364;-1.504;2022-09-09T07:36:52;9.75;;;7.43;;
24409;SDS011;12543;53.364;-1.504;2022-09-09T07:39:19;9.68;;;8.02;;
24409;SDS011;12543;53.364;-1.504;2022-09-09T07:41:51;8.38;;;7.38;;
24409;SDS011;12543;53.364;-1.504;2022-09-09T07:44:22;8.07;;;7.28;;
24409;SDS011;12543;53.364;-1.504;2022-09-09T07:47:04;8.63;;;6.88;;
24409;SDS011;12543;53.364;-1.504;2022-09-09T07:49:35;7.22;;;6.50;;
24409;SDS011;12543;53.364;-1.504;2022-09-09T07:52:04;8.27;;;6.78;;
24409;SDS011;12543;53.364;-1.504;2022-09-09T07:54:34;9.05;;;6.85;;
24409;SDS011;12543;53.364;-1.504;2022-09-09T07:57:03;7.88;;;6.82;;
24409;SDS011;12543;53.364;-1.504;2022-09-09T07:59:34;7.18;;;6.28;;
24409;SDS011;12543;53.364;-1.504;2022-09-09T08:02:02;7.47;;;6.00;;
24409;SDS011;12543;53.364;-1.504;2022-09-09T08:04:32;9.02;;;6.88;;
24409;SDS011;12543;53.364;-1.504;2022-09-09T08:07:00;6.47;;;5.80;;
24409;SDS011;12543;53.364;-1.504;2022-09-09T08:09:31;7.93;;;6.80;;
24409;SDS011;12543;53.364;-1.504;2022-09-09T08:12:06;6.20;;;5.65;;
24409;SDS011;12543;53.364;-1.504;2022-09-09T08:14:35;6.28;;;5.60;;
24409;SDS011;12543;53.364;-1.504;2022-09-09T08:17:02;5.63;;;5.10;;
24409;SDS011;12543;53.364;-1.504;2022-09-09T08:19:31;6.00;;;5.25;;
24409;SDS011;12543;53.364;-1.504;2022-09-09T08:22:06;6.45;;;4.97;;
24409;SDS011;12543;53.364;-1.504;2022-09-09T08:24:36;9.10;;;5.13;;
24409;SDS011;12543;53.364;-1.504;2022-09-09T08:27:03;6.60;;;5.28;;
24409;SDS011;12543;53.364;-1.504;2022-09-09T08:29:31;6.55;;;4.70;;
24409;SDS011;12543;53.364;-1.504;2022-09-09T08:31:58;7.65;;;4.45;;
24409;SDS011;12543;53.364;-1.504;2022-09-09T08:34:27;5.13;;;3.85;;
24409;SDS011;12543;53.364;-1.504;2022-09-09T08:36:56;4.72;;;3.40;;
24409;SDS011;12543;53.364;-1.504;2022-09-09T08:39:30;5.57;;;3.92;;
24409;SDS011;12543;53.364;-1.504;2022-09-09T08:50:21;5.10;;;3.08;;
24409;SDS011;12543;53.364;-1.504;2022-09-09T08:54:06;3.13;;;2.78;;
24409;SDS011;12543;53.364;-1.504;2022-09-09T08:56:12;3.25;;;2.65;;
24409;SDS011;12543;53.364;-1.504;2022-09-09T08:58:49;3.40;;;2.67;;
24409;SDS011;12543;53.364;-1.504;2022-09-09T09:12:19;3.53;;;3.10;;
24409;SDS011;12543;53.364;-1.504;2022-09-09T09:14:50;3.08;;;2.50;;
24409;SDS011;12543;53.364;-1.504;2022-09-09T09:19:47;4.55;;;3.38;;
24409;SDS011;12543;53.364;-1.504;2022-09-09T09:22:24;2.92;;;2.67;;
24409;SDS011;12543;53.364;-1.504;2022-09-09T09:25:15;3.63;;;2.80;;
24409;SDS011;12543;53.364;-1.504;2022-09-09T09:30:41;2.97;;;2.00;;
24409;SDS011;12543;53.364;-1.504;2022-09-09T09:36:17;2.88;;;1.83;;
24409;SDS011;12543;53.364;-1.504;2022-09-09T09:38:57;1.90;;;1.70;;
24409;SDS011;12543;53.364;-1.504;2022-09-09T09:41:47;2.42;;;1.70;;
24409;SDS011;12543;53.364;-1.504;2022-09-09T09:47:05;1.30;;;1.20;;
24409;SDS011;12543;53.364;-1.504;2022-09-09T09:49:33;2.15;;;1.35;;
24409;SDS011;12543;53.364;-1.504;2022-09-09T09:52:01;2.10;;;1.17;;
24409;SDS011;12543;53.364;-1.504;2022-09-09T09:54:30;2.58;;;1.25;;
24409;SDS011;12543;53.364;-1.504;2022-09-09T09:57:11;2.17;;;1.15;;
24409;SDS011;12543;53.364;-1.504;2022-09-09T09:59:42;1.52;;;1.02;;
24409;SDS011;12543;53.364;-1.504;2022-09-09T10:02:20;1.23;;;1.02;;
24409;SDS011;12543;53.364;-1.504;2022-09-09T10:05:05;1.45;;;1.00;;
24409;SDS011;12543;53.364;-1.504;2022-09-09T10:07:34;2.33;;;1.00;;
24409;SDS011;12543;53.364;-1.504;2022-09-09T10:10:03;2.58;;;1.00;;
24409;SDS011;12543;53.364;-1.504;2022-09-09T10:12:44;2.35;;;1.00;;
24409;SDS011;12543;53.364;-1.504;2022-09-09T10:16:13;1.60;;;0.80;;
24409;SDS011;12543;53.364;-1.504;2022-09-09T10:26:55;1.40;;;1.20;;
24409;SDS011;12543;53.364;-1.504;2022-09-09T10:30:04;2.17;;;1.58;;
24409;SDS011;12543;53.364;-1.504;2022-09-09T10:33:16;3.08;;;1.70;;
24409;SDS011;12543;53.364;-1.504;2022-09-09T10:38:42;2.58;;;1.80;;
24409;SDS011;12543;53.364;-1.504;2022-09-09T10:47:07;3.90;;;1.55;;
24409;SDS011;12543;53.364;-1.504;2022-09-09T10:56:14;3.67;;;1.20;;
24409;SDS011;12543;53.364;-1.504;2022-09-09T10:58:47;1.55;;;1.10;;
24409;SDS011;12543;53.364;-1.504;2022-09-09T11:01:41;1.65;;;0.73;;
24409;SDS011;12543;53.364;-1.504;2022-09-09T11:04:17;1.65;;;0.82;;
24409;SDS011;12543;53.364;-1.504;2022-09-09T11:06:50;2.42;;;1.10;;
24409;SDS011;12543;53.364;-1.504;2022-09-09T11:09:26;0.98;;;0.80;;
24409;SDS011;12543;53.364;-1.504;2022-09-09T11:11:58;1.90;;;0.90;;
24409;SDS011;12543;53.364;-1.504;2022-09-09T11:14:48;1.63;;;0.90;;
24409;SDS011;12543;53.364;-1.504;2022-09-09T11:17:39;1.35;;;0.70;;
24409;SDS011;12543;53.364;-1.504;2022-09-09T11:20:13;2.00;;;0.70;;
24409;SDS011;12543;53.364;-1.504;2022-09-09T11:25:18;1.60;;;0.70;;
24409;SDS011;12543;53.364;-1.504;2022-09-09T11:30:21;2.05;;;0.90;;
24409;SDS011;12543;53.364;-1.504;2022-09-09T11:44:39;2.13;;;0.70;;
24409;SDS011;12543;53.364;-1.504;2022-09-09T11:50:10;0.30;;;0.30;;
24409;SDS011;12543;53.364;-1.504;2022-09-09T11:53:24;1.77;;;0.50;;
24409;SDS011;12543;53.364;-1.504;2022-09-09T11:58:43;1.02;;;0.45;;
24409;SDS011;12543;53.364;-1.504;2022-09-09T12:01:26;1.55;;;0.65;;
24409;SDS011;12543;53.364;-1.504;2022-09-09T12:03:57;1.17;;;0.50;;
24409;SDS011;12543;53.364;-1.504;2022-09-09T12:06:44;0.57;;;0.40;;
24409;SDS011;12543;53.364;-1.504;2022-09-09T12:11:50;1.00;;;0.50;;
24409;SDS011;12543;53.364;-1.504;2022-09-09T12:14:54;0.87;;;0.50;;
24409;SDS011;12543;53.364;-1.504;2022-09-09T12:17:22;1.38;;;0.57;;
24409;SDS011;12543;53.364;-1.504;2022-09-09T12:20:01;2.60;;;0.68;;
24409;SDS011;12543;53.364;-1.504;2022-09-09T12:28:09;1.40;;;0.70;;
24409;SDS011;12543;53.364;-1.504;2022-09-09T12:33:24;1.35;;;0.65;;
24409;SDS011;12543;53.364;-1.504;2022-09-09T12:35:59;1.73;;;0.88;;
24409;SDS011;12543;53.364;-1.504;2022-09-09T12:38:37;1.52;;;0.55;;
24409;SDS011;12543;53.364;-1.504;2022-09-09T12:41:17;1.75;;;0.60;;
24409;SDS011;12543;53.364;-1.504;2022-09-09T12:43:49;1.52;;;0.70;;
24409;SDS011;12543;53.364;-1.504;2022-09-09T12:46:27;2.65;;;0.60;;
24409;SDS011;12543;53.364;-1.504;2022-09-09T12:49:03;2.13;;;0.77;;
24409;SDS011;12543;53.364;-1.504;2022-09-09T12:51:31;1.15;;;0.50;;
24409;SDS011;12543;53.364;-1.504;2022-09-09T12:53:59;0.75;;;0.47;;
24409;SDS011;12543;53.364;-1.504;2022-09-09T12:56:28;0.85;;;0.45;;
24409;SDS011;12543;53.364;-1.504;2022-09-09T12:58:57;1.00;;;0.40;;
24409;SDS011;12543;53.364;-1.504;2022-09-09T13:01:27;2.40;;;0.50;;
24409;SDS011;12543;53.364;-1.504;2022-09-09T13:03:59;1.35;;;0.50;;
24409;SDS011;12543;53.364;-1.504;2022-09-09T13:06:31;2.08;;;0.57;;
24409;SDS011;12543;53.364;-1.504;2022-09-09T13:08:59;2.13;;;0.60;;
24409;SDS011;12543;53.364;-1.504;2022-09-09T13:11:35;1.42;;;0.60;;
24409;SDS011;12543;53.364;-1.504;2022-09-09T13:14:02;1.35;;;0.60;;
24409;SDS011;12543;53.364;-1.504;2022-09-09T13:16:31;0.73;;;0.40;;
24409;SDS011;12543;53.364;-1.504;2022-09-09T13:19:13;2.42;;;0.30;;
24409;SDS011;12543;53.364;-1.504;2022-09-09T13:21:42;0.80;;;0.30;;
24409;SDS011;12543;53.364;-1.504;2022-09-09T13:26:56;0.30;;;0.20;;
24409;SDS011;12543;53.364;-1.504;2022-09-09T13:29:24;1.02;;;0.30;;
24409;SDS011;12543;53.364;-1.504;2022-09-09T13:31:51;0.90;;;0.30;;
24409;SDS011;12543;53.364;-1.504;2022-09-09T13:34:30;0.40;;;0.30;;
24409;SDS011;12543;53.364;-1.504;2022-09-09T13:36:59;0.93;;;0.40;;
24409;SDS011;12543;53.364;-1.504;2022-09-09T13:39:29;0.55;;;0.40;;
24409;SDS011;12543;53.364;-1.504;2022-09-09T13:41:57;0.20;;;0.20;;
24409;SDS011;12543;53.364;-1.504;2022-09-09T13:44:26;1.67;;;0.20;;
24409;SDS011;12543;53.364;-1.504;2022-09-09T13:47:05;0.68;;;0.22;;
24409;SDS011;12543;53.364;-1.504;2022-09-09T13:49:43;1.00;;;0.30;;
24409;SDS011;12543;53.364;-1.504;2022-09-09T13:54:46;0.85;;;0.55;;
24409;SDS011;12543;53.364;-1.504;2022-09-09T13:57:18;0.47;;;0.40;;
24409;SDS011;12543;53.364;-1.504;2022-09-09T13:59:49;0.93;;;0.35;;
24409;SDS011;12543;53.364;-1.504;2022-09-09T14:02:32;1.30;;;0.40;;
24409;SDS011;12543;53.364;-1.504;2022-09-09T14:05:00;1.25;;;0.35;;
24409;SDS011;12543;53.364;-1.504;2022-09-09T14:07:27;0.95;;;0.40;;
24409;SDS011;12543;53.364;-1.504;2022-09-09T14:09:55;0.77;;;0.40;;
24409;SDS011;12543;53.364;-1.504;2022-09-09T14:12:22;1.30;;;0.20;;
24409;SDS011;12543;53.364;-1.504;2022-09-09T14:14:49;0.75;;;0.20;;
24409;SDS011;12543;53.364;-1.504;2022-09-09T14:17:17;0.70;;;0.40;;
24409;SDS011;12543;53.364;-1.504;2022-09-09T14:19:44;0.82;;;0.32;;
24409;SDS011;12543;53.364;-1.504;2022-09-09T14:22:12;1.10;;;0.30;;
24409;SDS011;12543;53.364;-1.504;2022-09-09T14:24:39;0.85;;;0.30;;
24409;SDS011;12543;53.364;-1.504;2022-09-09T14:27:07;0.77;;;0.40;;
24409;SDS011;12543;53.364;-1.504;2022-09-09T14:29:35;0.30;;;0.28;;
24409;SDS011;12543;53.364;-1.504;2022-09-09T14:32:02;1.67;;;0.50;;
24409;SDS011;12543;53.364;-1.504;2022-09-09T14:34:29;1.10;;;0.30;;
24409;SDS011;12543;53.364;-1.504;2022-09-09T14:37:00;0.63;;;0.32;;
24409;SDS011;12543;53.364;-1.504;2022-09-09T14:39:27;0.83;;;0.30;;
24409;SDS011;12543;53.364;-1.504;2022-09-09T14:41:57;0.65;;;0.20;;
24409;SDS011;12543;53.364;-1.504;2022-09-09T14:44:24;0.45;;;0.30;;
24409;SDS011;12543;53.364;-1.504;2022-09-09T14:46:52;0.30;;;0.20;;
24409;SDS011;12543;53.364;-1.504;2022-09-09T14:49:20;0.35;;;0.20;;
24409;SDS011;12543;53.364;-1.504;2022-09-09T14:51:47;0.50;;;0.25;;
24409;SDS011;12543;53.364;-1.504;2022-09-09T14:54:14;2.28;;;0.40;;
24409;SDS011;12543;53.364;-1.504;2022-09-09T14:56:42;0.30;;;0.30;;
24409;SDS011;12543;53.364;-1.504;2022-09-09T14:59:09;0.30;;;0.20;;
24409;SDS011;12543;53.364;-1.504;2022-09-09T15:01:39;2.33;;;0.30;;
24409;SDS011;12543;53.364;-1.504;2022-09-09T15:04:10;0.20;;;0.20;;
24409;SDS011;12543;53.364;-1.504;2022-09-09T15:06:41;0.30;;;0.30;;
24409;SDS011;12543;53.364;-1.504;2022-09-09T15:11:40;1.30;;;0.35;;
24409;SDS011;12543;53.364;-1.504;2022-09-09T15:14:07;0.75;;;0.40;;
24409;SDS011;12543;53.364;-1.504;2022-09-09T15:16:35;0.88;;;0.57;;
24409;SDS011;12543;53.364;-1.504;2022-09-09T15:19:03;0.77;;;0.60;;
24409;SDS011;12543;53.364;-1.504;2022-09-09T15:21:32;0.40;;;0.40;;
24409;SDS011;12543;53.364;-1.504;2022-09-09T15:24:00;0.40;;;0.40;;
24409;SDS011;12543;53.364;-1.504;2022-09-09T15:26:27;0.55;;;0.30;;
24409;SDS011;12543;53.364;-1.504;2022-09-09T15:28:56;0.90;;;0.30;;
24409;SDS011;12543;53.364;-1.504;2022-09-09T15:31:27;0.43;;;0.30;;
24409;SDS011;12543;53.364;-1.504;2022-09-09T15:33:57;0.20;;;0.20;;
24409;SDS011;12543;53.364;-1.504;2022-09-09T15:36:35;0.15;;;0.15;;
24409;SDS011;12543;53.364;-1.504;2022-09-09T15:39:05;0.20;;;0.20;;
24409;SDS011;12543;53.364;-1.504;2022-09-09T15:41:34;0.30;;;0.30;;
24409;SDS011;12543;53.364;-1.504;2022-09-09T15:44:01;0.20;;;0.17;;
24409;SDS011;12543;53.364;-1.504;2022-09-09T15:46:37;0.30;;;0.20;;
24409;SDS011;12543;53.364;-1.504;2022-09-09T15:49:26;0.20;;;0.20;;
24409;SDS011;12543;53.364;-1.504;2022-09-09T15:51:54;0.45;;;0.30;;
24409;SDS011;12543;53.364;-1.504;2022-09-09T15:54:24;0.22;;;0.20;;
24409;SDS011;12543;53.364;-1.504;2022-09-09T15:56:54;0.20;;;0.20;;
24409;SDS011;12543;53.364;-1.504;2022-09-09T15:59:23;0.68;;;0.40;;
24409;SDS011;12543;53.364;-1.504;2022-09-09T16:01:51;0.20;;;0.20;;
24409;SDS011;12543;53.364;-1.504;2022-09-09T16:04:19;0.40;;;0.30;;
24409;SDS011;12543;53.364;-1.504;2022-09-09T16:06:53;0.35;;;0.30;;
24409;SDS011;12543;53.364;-1.504;2022-09-09T16:09:29;0.30;;;0.30;;
24409;SDS011;12543;53.364;-1.504;2022-09-09T16:11:58;0.68;;;0.30;;
24409;SDS011;12543;53.364;-1.504;2022-09-09T16:14:27;0.20;;;0.20;;
24409;SDS011;12543;53.364;-1.504;2022-09-09T16:16:54;0.73;;;0.30;;
24409;SDS011;12543;53.364;-1.504;2022-09-09T16:19:21;1.10;;;0.40;;
24409;SDS011;12543;53.364;-1.504;2022-09-09T16:21:49;0.40;;;0.25;;
24409;SDS011;12543;53.364;-1.504;2022-09-09T16:24:17;0.30;;;0.28;;
24409;SDS011;12543;53.364;-1.504;2022-09-09T16:26:48;0.35;;;0.10;;
24409;SDS011;12543;53.364;-1.504;2022-09-09T16:29:18;1.65;;;0.40;;
24409;SDS011;12543;53.364;-1.504;2022-09-09T16:31:48;0.52;;;0.40;;
24409;SDS011;12543;53.364;-1.504;2022-09-09T16:34:16;0.75;;;0.30;;
24409;SDS011;12543;53.364;-1.504;2022-09-09T16:36:43;0.57;;;0.40;;
24409;SDS011;12543;53.364;-1.504;2022-09-09T16:39:11;0.35;;;0.30;;
24409;SDS011;12543;53.364;-1.504;2022-09-09T16:41:40;0.40;;;0.40;;
24409;SDS011;12543;53.364;-1.504;2022-09-09T16:44:09;0.63;;;0.30;;
24409;SDS011;12543;53.364;-1.504;2022-09-09T16:46:41;0.82;;;0.32;;
24409;SDS011;12543;53.364;-1.504;2022-09-09T16:49:13;1.00;;;0.60;;
24409;SDS011;12543;53.364;-1.504;2022-09-09T16:51:44;0.65;;;0.40;;
24409;SDS011;12543;53.364;-1.504;2022-09-09T16:54:16;0.95;;;0.40;;
24409;SDS011;12543;53.364;-1.504;2022-09-09T16:56:45;0.73;;;0.65;;
24409;SDS011;12543;53.364;-1.504;2022-09-09T16:59:14;0.80;;;0.30;;
24409;SDS011;12543;53.364;-1.504;2022-09-09T17:01:46;0.82;;;0.47;;
24409;SDS011;12543;53.364;-1.504;2022-09-09T17:04:16;0.40;;;0.30;;
24409;SDS011;12543;53.364;-1.504;2022-09-09T17:06:48;0.80;;;0.40;;
24409;SDS011;12543;53.364;-1.504;2022-09-09T17:09:17;0.60;;;0.40;;
24409;SDS011;12543;53.364;-1.504;2022-09-09T17:14:35;0.50;;;0.25;;
24409;SDS011;12543;53.364;-1.504;2022-09-09T17:17:02;0.20;;;0.20;;
24409;SDS011;12543;53.364;-1.504;2022-09-09T17:19:52;0.30;;;0.30;;